createdAt,value
2023-01-07T00:00:29.237Z,97519.34
2023-01-07T00:01:33.176Z,97519.97
2023-01-07T00:02:35.023Z,97520.78
2023-01-07T00:03:37.313Z,97524.34
2023-01-07T00:04:39.113Z,97521.09
2023-01-07T00:05:40.939Z,97522.56
2023-01-07T00:06:44.467Z,97526.44
2023-01-07T00:07:46.285Z,97526.13
2023-01-07T00:08:48.854Z,97523.69
2023-01-07T00:09:50.686Z,97524.03
2023-01-07T00:10:52.522Z,97517.53
2023-01-07T00:11:54.380Z,97519.81
2023-01-07T00:12:56.282Z,97519.66
2023-01-07T00:13:58.794Z,97519.16
2023-01-07T00:15:00.644Z,97527.44
2023-01-07T00:16:03.671Z,97520.16
2023-01-07T00:17:05.634Z,97525.34
2023-01-07T00:18:07.477Z,97526.13
2023-01-07T00:19:12.387Z,97521.59
2023-01-07T00:20:14.144Z,97520.78
2023-01-07T00:21:17.106Z,97526.94
2023-01-07T00:22:18.871Z,97518.50
2023-01-07T00:23:21.978Z,97516.91
2023-01-07T00:24:23.844Z,97517.72
2023-01-07T00:25:25.819Z,97514.31
2023-01-07T00:26:29.733Z,97518.50
2023-01-07T00:27:31.570Z,97525.81
2023-01-07T00:28:34.364Z,97522.72
2023-01-07T00:29:36.131Z,97526.47
2023-01-07T00:30:37.941Z,97525.47
2023-01-07T00:31:41.039Z,97519.16
2023-01-07T00:33:05.608Z,97525.69
2023-01-07T00:34:09.446Z,97527.94
2023-01-07T00:35:23.337Z,97525.97
2023-01-07T00:36:26.449Z,97528.91
2023-01-07T00:37:46.736Z,97522.59
2023-01-07T00:38:49.105Z,97527.13
2023-01-07T00:39:50.970Z,97523.38
2023-01-07T00:40:52.853Z,97526.78
2023-01-07T00:42:12.790Z,97527.63
2023-01-07T00:43:14.498Z,97523.72
2023-01-07T00:44:16.406Z,97521.78
2023-01-07T00:45:18.205Z,97524.84
2023-01-07T00:46:20.037Z,97523.22
2023-01-07T00:47:22.382Z,97524.34
2023-01-07T00:48:24.403Z,97524.34
2023-01-07T00:49:26.497Z,97522.41
2023-01-07T00:50:29.807Z,97525.81
2023-01-07T00:51:31.621Z,97517.84
2023-01-07T00:52:33.379Z,97524.03
2023-01-07T00:53:35.285Z,97526.28
2023-01-07T00:54:37.119Z,97519.16
2023-01-07T00:55:39.109Z,97520.78
2023-01-07T00:56:40.953Z,97519.66
2023-01-07T00:57:43.037Z,97518.19
2023-01-07T00:58:45.040Z,97519.16
2023-01-07T00:59:46.887Z,97520.44
2023-01-07T01:00:48.911Z,97514.59
2023-01-07T01:01:50.832Z,97520.28
2023-01-07T01:02:53.373Z,97517.81
2023-01-07T01:03:55.325Z,97519.91
2023-01-07T01:04:57.206Z,97519.28
2023-01-07T01:06:03.361Z,97521.53
2023-01-07T01:07:05.164Z,97523.97
2023-01-07T01:08:07.674Z,97519.91
2023-01-07T01:09:09.515Z,97522.84
2023-01-07T01:10:13.271Z,97523.00
2023-01-07T01:11:16.224Z,97525.91
2023-01-07T01:12:18.003Z,97527.34
2023-01-07T01:13:19.812Z,97516.84
2023-01-07T01:14:21.663Z,97525.25
2023-01-07T01:15:23.696Z,97519.91
2023-01-07T01:16:25.653Z,97520.25
2023-01-07T01:17:27.684Z,97522.22
2023-01-07T01:18:29.550Z,97522.06
2023-01-07T01:19:31.343Z,97519.47
2023-01-07T01:20:34.591Z,97518.16
2023-01-07T01:21:36.462Z,97515.88
2023-01-07T01:22:38.352Z,97525.28
2023-01-07T01:23:40.431Z,97518.47
2023-01-07T01:24:42.195Z,97515.06
2023-01-07T01:25:44.059Z,97516.84
2023-01-07T01:26:45.869Z,97521.06
2023-01-07T01:27:47.653Z,97521.72
2023-01-07T01:28:49.473Z,97520.25
2023-01-07T01:29:51.287Z,97515.88
2023-01-07T01:30:56.166Z,97518.97
2023-01-07T01:31:58.085Z,97514.91
2023-01-07T01:32:59.856Z,97517.00
2023-01-07T01:34:01.866Z,97520.22
2023-01-07T01:35:03.714Z,97514.91
2023-01-07T01:36:06.036Z,97526.72
2023-01-07T01:37:08.337Z,97519.75
2023-01-07T01:38:10.234Z,97517.81
2023-01-07T01:39:12.512Z,97516.69
2023-01-07T01:40:14.522Z,97509.25
2023-01-07T01:41:19.155Z,97516.22
2023-01-07T01:42:23.051Z,97508.13
2023-01-07T01:43:27.011Z,97510.88
2023-01-07T01:44:49.840Z,97507.78
2023-01-07T01:45:51.774Z,97504.84
2023-01-07T01:46:53.766Z,97514.91
2023-01-07T01:48:03.556Z,97513.59
2023-01-07T01:49:23.955Z,97510.03
2023-01-07T01:50:31.618Z,97511.81
2023-01-07T01:51:37.497Z,97508.22
2023-01-07T01:52:41.979Z,97504.19
2023-01-07T01:53:43.769Z,97502.09
2023-01-07T01:54:55.463Z,97505.00
2023-01-07T01:56:07.773Z,97503.53
2023-01-07T01:57:10.160Z,97499.00
2023-01-07T01:58:15.261Z,97501.28
2023-01-07T01:59:22.728Z,97495.63
2023-01-07T02:00:24.674Z,97491.41
2023-01-07T02:01:26.960Z,97495.47
2023-01-07T02:02:39.942Z,97500.00
2023-01-07T02:03:41.734Z,97493.53
2023-01-07T02:04:43.644Z,97493.53
2023-01-07T02:05:46.114Z,97488.34
2023-01-07T02:07:08.108Z,97490.63
2023-01-07T02:08:10.253Z,97486.41
2023-01-07T02:09:13.109Z,97484.31
2023-01-07T02:10:19.782Z,97482.38
2023-01-07T02:11:30.720Z,97478.97
2023-01-07T02:12:32.429Z,97480.25
2023-01-07T02:13:46.283Z,97478.16
2023-01-07T02:15:00.405Z,97481.53
2023-01-07T02:16:02.230Z,97475.22
2023-01-07T02:17:10.758Z,97477.50
2023-01-07T02:18:21.696Z,97475.25
2023-01-07T02:19:26.399Z,97474.91
2023-01-07T02:20:43.737Z,97478.50
2023-01-07T02:21:55.803Z,97475.06
2023-01-07T02:23:15.996Z,97471.03
2023-01-07T02:24:33.405Z,97468.44
2023-01-07T02:25:55.822Z,97467.94
2023-01-07T02:27:06.765Z,97470.69
2023-01-07T02:28:14.725Z,97474.41
2023-01-07T02:29:25.720Z,97467.94
2023-01-07T02:30:50.932Z,97466.31
2023-01-07T02:32:19.507Z,97463.72
2023-01-07T02:33:33.870Z,97468.72
2023-01-07T02:34:35.601Z,97470.22
2023-01-07T02:35:40.059Z,97463.41
2023-01-07T02:36:48.141Z,97466.66
2023-01-07T02:38:04.749Z,97466.00
2023-01-07T02:39:09.592Z,97466.78
2023-01-07T02:40:19.652Z,97464.38
2023-01-07T02:41:41.704Z,97463.41
2023-01-07T02:42:46.776Z,97464.84
2023-01-07T02:43:51.387Z,97465.19
2023-01-07T02:45:15.347Z,97458.72
2023-01-07T02:46:19.977Z,97455.78
2023-01-07T02:47:29.983Z,97453.53
2023-01-07T02:48:33.688Z,97463.25
2023-01-07T02:49:35.931Z,97454.97
2023-01-07T02:50:37.857Z,97456.41
2023-01-07T02:51:40.620Z,97454.31
2023-01-07T02:52:42.427Z,97451.44
2023-01-07T02:53:47.107Z,97453.03
2023-01-07T02:55:09.165Z,97455.31
2023-01-07T02:56:10.961Z,97455.97
2023-01-07T02:57:12.737Z,97458.88
2023-01-07T02:58:20.429Z,97459.53
2023-01-07T02:59:31.470Z,97454.03
2023-01-07T03:00:51.778Z,97454.03
2023-01-07T03:02:22.763Z,97455.31
2023-01-07T03:03:26.809Z,97453.69
2023-01-07T03:04:54.010Z,97456.94
2023-01-07T03:06:03.244Z,97457.72
2023-01-07T03:07:11.024Z,97449.16
2023-01-07T03:08:28.103Z,97440.72
2023-01-07T03:09:39.075Z,97442.38
2023-01-07T03:10:45.994Z,97448.03
2023-01-07T03:11:56.885Z,97441.53
2023-01-07T03:13:02.592Z,97442.38
2023-01-07T03:14:11.853Z,97443.81
2023-01-07T03:15:33.958Z,97446.25
2023-01-07T03:16:35.730Z,97444.47
2023-01-07T03:17:41.647Z,97437.84
2023-01-07T03:18:47.482Z,97438.16
2023-01-07T03:19:55.291Z,97435.25
2023-01-07T03:21:00.139Z,97440.94
2023-01-07T03:22:02.675Z,97444.47
2023-01-07T03:23:09.557Z,97448.50
2023-01-07T03:24:11.513Z,97436.84
2023-01-07T03:25:14.157Z,97445.94
2023-01-07T03:26:19.079Z,97448.69
2023-01-07T03:27:23.423Z,97443.50
2023-01-07T03:28:28.180Z,97439.13
2023-01-07T03:29:32.472Z,97446.41
2023-01-07T03:30:34.441Z,97446.91
2023-01-07T03:31:37.167Z,97450.63
2023-01-07T03:32:41.787Z,97438.78
2023-01-07T03:33:51.698Z,97447.41
2023-01-07T03:34:54.457Z,97444.97
2023-01-07T03:35:58.288Z,97440.94
2023-01-07T03:37:04.267Z,97440.44
2023-01-07T03:38:06.783Z,97443.81
2023-01-07T03:39:11.062Z,97439.63
2023-01-07T03:40:13.035Z,97438.00
2023-01-07T03:41:34.962Z,97429.41
2023-01-07T03:42:42.376Z,97431.66
2023-01-07T03:43:44.222Z,97438.78
2023-01-07T03:44:46.064Z,97432.81
2023-01-07T03:45:49.072Z,97437.34
2023-01-07T03:46:51.800Z,97433.78
2023-01-07T03:47:55.661Z,97432.66
2023-01-07T03:48:57.560Z,97434.59
2023-01-07T03:49:59.316Z,97435.41
2023-01-07T03:51:01.120Z,97431.66
2023-01-07T03:52:03.149Z,97431.38
2023-01-07T03:53:05.136Z,97432.81
2023-01-07T03:54:07.037Z,97430.38
2023-01-07T03:55:09.612Z,97428.28
2023-01-07T03:56:11.443Z,97431.66
2023-01-07T03:57:13.314Z,97431.19
2023-01-07T03:58:15.207Z,97428.44
2023-01-07T03:59:17.032Z,97423.88
2023-01-07T04:00:19.041Z,97430.06
2023-01-07T04:01:20.983Z,97423.91
2023-01-07T04:02:22.977Z,97425.69
2023-01-07T04:03:24.849Z,97422.59
2023-01-07T04:04:26.863Z,97421.00
2023-01-07T04:05:28.696Z,97412.06
2023-01-07T04:06:30.540Z,97414.66
2023-01-07T04:07:32.386Z,97416.75
2023-01-07T04:08:34.242Z,97403.50
2023-01-07T04:09:36.060Z,97411.44
2023-01-07T04:10:37.938Z,97407.88
2023-01-07T04:11:39.746Z,97405.59
2023-01-07T04:12:41.658Z,97409.00
2023-01-07T04:13:43.445Z,97405.59
2023-01-07T04:14:45.280Z,97407.25
2023-01-07T04:15:47.121Z,97406.91
2023-01-07T04:16:51.624Z,97393.13
2023-01-07T04:17:53.580Z,97393.78
2023-01-07T04:18:55.426Z,97403.66
2023-01-07T04:19:57.189Z,97402.84
2023-01-07T04:20:58.961Z,97397.97
2023-01-07T04:22:00.938Z,97396.03
2023-01-07T04:23:02.913Z,97399.28
2023-01-07T04:24:04.947Z,97395.88
2023-01-07T04:25:07.016Z,97396.53
2023-01-07T04:26:08.976Z,97394.91
2023-01-07T04:27:11.114Z,97395.72
2023-01-07T04:28:13.192Z,97395.38
2023-01-07T04:29:15.108Z,97389.72
2023-01-07T04:30:17.178Z,97379.19
2023-01-07T04:31:19.013Z,97390.34
2023-01-07T04:32:20.865Z,97391.19
2023-01-07T04:33:22.749Z,97390.34
2023-01-07T04:34:25.179Z,97387.31
2023-01-07T04:35:27.094Z,97390.84
2023-01-07T04:36:29.594Z,97381.78
2023-01-07T04:37:31.519Z,97383.41
2023-01-07T04:38:33.450Z,97387.59
2023-01-07T04:39:35.371Z,97384.53
2023-01-07T04:40:37.199Z,97386.31
2023-01-07T04:41:39.225Z,97382.75
2023-01-07T04:42:41.030Z,97374.34
2023-01-07T04:43:42.855Z,97381.13
2023-01-07T04:44:44.758Z,97378.53
2023-01-07T04:45:46.704Z,97384.53
2023-01-07T04:46:48.580Z,97373.22
2023-01-07T04:47:50.630Z,97377.91
2023-01-07T04:48:52.444Z,97380.00
2023-01-07T04:49:54.258Z,97374.66
2023-01-07T04:50:56.053Z,97376.44
2023-01-07T04:51:57.862Z,97372.06
2023-01-07T04:52:59.680Z,97372.06
2023-01-07T04:54:01.494Z,97378.88
2023-01-07T04:55:03.514Z,97377.59
2023-01-07T04:56:06.610Z,97365.22
2023-01-07T04:57:08.547Z,97368.00
2023-01-07T04:58:10.390Z,97365.06
2023-01-07T04:59:12.266Z,97363.81
2023-01-07T05:00:14.303Z,97367.38
2023-01-07T05:01:16.319Z,97355.88
2023-01-07T05:02:18.283Z,97359.47
2023-01-07T05:03:20.245Z,97356.69
2023-01-07T05:04:22.090Z,97363.16
2023-01-07T05:05:23.985Z,97357.50
2023-01-07T05:06:25.877Z,97357.50
2023-01-07T05:07:27.674Z,97354.44
2023-01-07T05:08:29.528Z,97354.75
2023-01-07T05:09:31.368Z,97359.72
2023-01-07T05:10:33.370Z,97355.84
2023-01-07T05:11:35.291Z,97355.84
2023-01-07T05:12:37.636Z,97351.00
2023-01-07T05:13:39.481Z,97354.94
2023-01-07T05:14:41.288Z,97348.09
2023-01-07T05:15:43.060Z,97351.00
2023-01-07T05:16:45.295Z,97348.41
2023-01-07T05:17:47.172Z,97343.56
2023-01-07T05:18:48.989Z,97345.66
2023-01-07T05:19:50.875Z,97341.97
2023-01-07T05:20:52.760Z,97344.38
2023-01-07T05:21:54.651Z,97343.56
2023-01-07T05:22:56.511Z,97340.84
2023-01-07T05:23:58.375Z,97345.50
2023-01-07T05:25:00.173Z,97340.97
2023-01-07T05:26:02.001Z,97338.38
2023-01-07T05:27:03.890Z,97331.41
2023-01-07T05:28:05.748Z,97336.28
2023-01-07T05:29:07.650Z,97330.31
2023-01-07T05:30:09.767Z,97332.56
2023-01-07T05:31:11.641Z,97333.56
2023-01-07T05:32:13.532Z,97332.41
2023-01-07T05:33:15.370Z,97338.56
2023-01-07T05:34:17.239Z,97338.41
2023-01-07T05:35:19.140Z,97332.25
2023-01-07T05:36:21.026Z,97328.38
2023-01-07T05:37:22.865Z,97330.63
2023-01-07T05:38:24.684Z,97329.66
2023-01-07T05:39:26.666Z,97334.34
2023-01-07T05:40:28.494Z,97332.88
2023-01-07T05:41:30.367Z,97333.69
2023-01-07T05:42:32.138Z,97324.81
2023-01-07T05:43:33.985Z,97327.25
2023-01-07T05:44:35.854Z,97331.09
2023-01-07T05:45:37.761Z,97327.38
2023-01-07T05:46:39.620Z,97321.41
2023-01-07T05:47:42.792Z,97318.47
2023-01-07T05:48:44.670Z,97319.47
2023-01-07T05:49:46.533Z,97323.84
2023-01-07T05:50:48.305Z,97323.84
2023-01-07T05:51:50.151Z,97320.88
2023-01-07T05:52:52.168Z,97320.88
2023-01-07T05:53:54.029Z,97316.00
2023-01-07T05:54:55.849Z,97319.94
2023-01-07T05:55:58.520Z,97314.75
2023-01-07T05:57:00.637Z,97321.56
2023-01-07T05:58:02.420Z,97319.78
2023-01-07T05:59:04.476Z,97318.13
2023-01-07T06:00:06.791Z,97316.19
2023-01-07T06:01:08.712Z,97316.66
2023-01-07T06:02:10.667Z,97315.06
2023-01-07T06:03:12.488Z,97313.91
2023-01-07T06:04:14.522Z,97314.41
2023-01-07T06:05:16.486Z,97308.44
2023-01-07T06:06:18.239Z,97310.19
2023-01-07T06:07:20.066Z,97313.44
2023-01-07T06:08:21.953Z,97302.75
2023-01-07T06:09:23.918Z,97306.16
2023-01-07T06:10:25.815Z,97307.28
2023-01-07T06:11:27.650Z,97302.13
2023-01-07T06:12:29.611Z,97303.72
2023-01-07T06:13:31.860Z,97305.19
2023-01-07T06:14:33.639Z,97300.47
2023-01-07T06:15:35.556Z,97299.03
2023-01-07T06:16:37.499Z,97302.75
2023-01-07T06:17:39.362Z,97310.38
2023-01-07T06:18:41.335Z,97311.16
2023-01-07T06:19:43.453Z,97317.16
2023-01-07T06:20:45.321Z,97309.88
2023-01-07T06:21:47.217Z,97313.41
2023-01-07T06:22:49.098Z,97311.63
2023-01-07T06:23:51.020Z,97316.34
2023-01-07T06:24:52.853Z,97319.72
2023-01-07T06:25:54.862Z,97311.16
2023-01-07T06:26:56.795Z,97312.47
2023-01-07T06:27:58.745Z,97312.47
2023-01-07T06:29:00.601Z,97314.72
2023-01-07T06:30:04.548Z,97308.59
2023-01-07T06:31:06.433Z,97306.66
2023-01-07T06:32:08.355Z,97313.28
2023-01-07T06:33:10.091Z,97310.84
2023-01-07T06:34:11.916Z,97310.53
2023-01-07T06:35:13.886Z,97302.41
2023-01-07T06:36:15.713Z,97314.25
2023-01-07T06:37:18.426Z,97312.47
2023-01-07T06:38:20.285Z,97315.38
2023-01-07T06:39:22.206Z,97308.44
2023-01-07T06:40:24.464Z,97300.47
2023-01-07T06:41:26.480Z,97302.59
2023-01-07T06:42:28.407Z,97305.34
2023-01-07T06:43:30.223Z,97300.16
2023-01-07T06:44:32.334Z,97307.94
2023-01-07T06:45:34.167Z,97299.53
2023-01-07T06:46:36.125Z,97309.06
2023-01-07T06:47:38.053Z,97306.31
2023-01-07T06:48:39.892Z,97309.53
2023-01-07T06:49:41.775Z,97302.91
2023-01-07T06:50:44.915Z,97305.34
2023-01-07T06:51:46.922Z,97299.53
2023-01-07T06:52:48.912Z,97296.94
2023-01-07T06:53:50.879Z,97298.06
2023-01-07T06:54:52.728Z,97295.63
2023-01-07T06:55:54.641Z,97298.88
2023-01-07T06:56:56.436Z,97299.81
2023-01-07T06:57:58.298Z,97296.94
2023-01-07T06:59:00.174Z,97298.88
2023-01-07T07:00:02.104Z,97307.94
2023-01-07T07:01:05.394Z,97307.44
2023-01-07T07:02:07.261Z,97298.88
2023-01-07T07:03:09.223Z,97297.06
2023-01-07T07:04:11.116Z,97300.63
2023-01-07T07:05:12.954Z,97295.28
2023-01-07T07:06:14.841Z,97287.88
2023-01-07T07:07:17.107Z,97292.88
2023-01-07T07:08:18.948Z,97294.97
2023-01-07T07:09:20.814Z,97298.66
2023-01-07T07:10:22.590Z,97300.47
2023-01-07T07:11:24.400Z,97301.44
2023-01-07T07:12:26.287Z,97295.78
2023-01-07T07:13:28.150Z,97289.31
2023-01-07T07:14:30.043Z,97295.94
2023-01-07T07:15:32.023Z,97298.22
2023-01-07T07:16:33.863Z,97301.91
2023-01-07T07:17:35.683Z,97290.09
2023-01-07T07:18:37.501Z,97297.06
2023-01-07T07:19:39.531Z,97295.63
2023-01-07T07:20:41.487Z,97293.66
2023-01-07T07:21:43.314Z,97286.22
2023-01-07T07:22:48.642Z,97292.38
2023-01-07T07:23:50.437Z,97295.25
2023-01-07T07:24:52.228Z,97288.47
2023-01-07T07:25:54.096Z,97293.31
2023-01-07T07:26:55.939Z,97291.88
2023-01-07T07:27:57.756Z,97285.56
2023-01-07T07:28:59.568Z,97290.25
2023-01-07T07:30:01.696Z,97286.84
2023-01-07T07:31:03.987Z,97289.44
2023-01-07T07:32:05.862Z,97290.41
2023-01-07T07:33:07.761Z,97284.25
2023-01-07T07:34:10.094Z,97284.91
2023-01-07T07:35:12.478Z,97282.81
2023-01-07T07:36:14.334Z,97287.00
2023-01-07T07:37:16.123Z,97287.50
2023-01-07T07:38:18.923Z,97293.00
2023-01-07T07:39:20.890Z,97286.03
2023-01-07T07:40:22.833Z,97296.88
2023-01-07T07:41:24.628Z,97292.03
2023-01-07T07:42:26.415Z,97291.22
2023-01-07T07:43:28.342Z,97285.88
2023-01-07T07:44:30.177Z,97281.81
2023-01-07T07:45:32.092Z,97287.00
2023-01-07T07:46:34.247Z,97286.34
2023-01-07T07:47:36.075Z,97282.66
2023-01-07T07:48:37.875Z,97285.88
2023-01-07T07:49:39.706Z,97288.63
2023-01-07T07:50:41.810Z,97283.75
2023-01-07T07:51:46.228Z,97282.16
2023-01-07T07:52:48.099Z,97283.13
2023-01-07T07:53:49.914Z,97278.78
2023-01-07T07:54:51.710Z,97279.09
2023-01-07T07:55:53.715Z,97281.84
2023-01-07T07:56:56.356Z,97283.16
2023-01-07T07:58:00.933Z,97286.72
2023-01-07T07:59:02.764Z,97274.41
2023-01-07T08:00:05.038Z,97282.47
2023-01-07T08:01:07.036Z,97278.59
2023-01-07T08:02:19.612Z,97287.19
2023-01-07T08:03:21.656Z,97271.66
2023-01-07T08:04:23.550Z,97280.72
2023-01-07T08:05:25.784Z,97278.44
2023-01-07T08:06:27.704Z,97278.59
2023-01-07T08:07:32.909Z,97278.09
2023-01-07T08:08:35.889Z,97273.75
2023-01-07T08:09:37.851Z,97270.31
2023-01-07T08:10:39.749Z,97273.09
2023-01-07T08:11:41.644Z,97273.25
2023-01-07T08:12:43.459Z,97272.91
2023-01-07T08:13:45.556Z,97268.56
2023-01-07T08:14:47.452Z,97269.06
2023-01-07T08:15:49.379Z,97272.94
2023-01-07T08:16:51.296Z,97272.78
2023-01-07T08:18:00.021Z,97267.78
2023-01-07T08:19:01.867Z,97260.34
2023-01-07T08:20:06.789Z,97262.44
2023-01-07T08:21:08.733Z,97265.69
2023-01-07T08:22:10.539Z,97258.41
2023-01-07T08:23:12.394Z,97256.47
2023-01-07T08:24:14.235Z,97254.69
2023-01-07T08:25:16.090Z,97254.53
2023-01-07T08:26:17.966Z,97257.28
2023-01-07T08:27:19.997Z,97250.50
2023-01-07T08:28:21.911Z,97247.41
2023-01-07T08:29:24.570Z,97242.41
2023-01-07T08:30:27.008Z,97247.41
2023-01-07T08:31:29.051Z,97247.75
2023-01-07T08:32:30.880Z,97248.69
2023-01-07T08:33:37.758Z,97244.66
2023-01-07T08:34:39.721Z,97247.25
2023-01-07T08:35:41.544Z,97242.06
2023-01-07T08:36:43.460Z,97246.13
2023-01-07T08:37:45.675Z,97239.63
2023-01-07T08:38:50.500Z,97237.25
2023-01-07T08:39:52.406Z,97237.25
2023-01-07T08:40:54.234Z,97240.63
2023-01-07T08:41:56.163Z,97245.66
2023-01-07T08:42:59.263Z,97235.94
2023-01-07T08:44:01.100Z,97242.06
2023-01-07T08:45:03.306Z,97241.28
2023-01-07T08:46:05.267Z,97233.81
2023-01-07T08:47:07.452Z,97239.31
2023-01-07T08:48:09.334Z,97235.44
2023-01-07T08:49:11.688Z,97236.59
2023-01-07T08:50:13.506Z,97233.81
2023-01-07T08:51:15.587Z,97232.22
2023-01-07T08:52:17.401Z,97232.84
2023-01-07T08:53:22.720Z,97230.25
2023-01-07T08:54:24.497Z,97228.16
2023-01-07T08:55:26.356Z,97236.38
2023-01-07T08:56:28.221Z,97228.63
2023-01-07T08:57:30.071Z,97228.63
2023-01-07T08:58:31.846Z,97222.66
2023-01-07T08:59:33.731Z,97232.19
2023-01-07T09:00:35.652Z,97225.72
2023-01-07T09:01:37.672Z,97226.69
2023-01-07T09:02:39.700Z,97215.38
2023-01-07T09:03:41.725Z,97223.16
2023-01-07T09:04:44.093Z,97226.84
2023-01-07T09:05:49.086Z,97219.72
2023-01-07T09:06:50.921Z,97212.78
2023-01-07T09:07:53.721Z,97223.47
2023-01-07T09:08:55.466Z,97211.47
2023-01-07T09:09:57.558Z,97213.25
2023-01-07T09:10:59.481Z,97219.56
2023-01-07T09:12:01.576Z,97212.63
2023-01-07T09:13:03.376Z,97215.84
2023-01-07T09:14:05.152Z,97216.50
2023-01-07T09:15:07.306Z,97211.47
2023-01-07T09:16:09.380Z,97206.94
2023-01-07T09:17:11.198Z,97214.41
2023-01-07T09:18:13.167Z,97204.69
2023-01-07T09:19:14.993Z,97208.59
2023-01-07T09:20:17.160Z,97211.31
2023-01-07T09:21:19.037Z,97202.41
2023-01-07T09:22:20.894Z,97201.25
2023-01-07T09:23:22.809Z,97214.06
2023-01-07T09:24:24.662Z,97203.38
2023-01-07T09:25:26.513Z,97200.13
2023-01-07T09:26:28.418Z,97196.38
2023-01-07T09:27:30.337Z,97195.41
2023-01-07T09:28:32.226Z,97201.72
2023-01-07T09:29:34.116Z,97205.75
2023-01-07T09:30:36.017Z,97204.00
2023-01-07T09:31:37.908Z,97200.44
2023-01-07T09:32:39.942Z,97196.56
2023-01-07T09:33:41.797Z,97200.94
2023-01-07T09:34:49.729Z,97196.56
2023-01-07T09:35:51.504Z,97197.84
2023-01-07T09:36:53.329Z,97195.25
2023-01-07T09:37:55.141Z,97194.75
2023-01-07T09:38:57.027Z,97205.13
2023-01-07T09:40:00.644Z,97198.50
2023-01-07T09:41:02.608Z,97186.19
2023-01-07T09:42:07.300Z,97190.22
2023-01-07T09:43:09.236Z,97190.50
2023-01-07T09:44:33.689Z,97189.06
2023-01-07T09:45:37.875Z,97182.72
2023-01-07T09:46:40.001Z,97191.63
2023-01-07T09:47:44.598Z,97178.94
2023-01-07T09:48:49.748Z,97183.47
2023-01-07T09:49:54.980Z,97174.53
2023-01-07T09:51:15.664Z,97184.69
2023-01-07T09:52:26.569Z,97175.91
2023-01-07T09:53:36.581Z,97171.41
2023-01-07T09:54:40.009Z,97166.91
2023-01-07T09:56:11.768Z,97166.75
2023-01-07T09:57:05.449Z,97163.84
2023-01-07T09:58:09.883Z,97158.19
2023-01-07T09:59:12.986Z,97156.06
2023-01-07T10:00:19.149Z,97158.00
2023-01-07T10:01:29.976Z,97152.81
2023-01-07T10:02:41.812Z,97151.41
2023-01-07T10:03:43.657Z,97153.63
2023-01-07T10:04:56.555Z,97134.84
2023-01-07T10:06:14.606Z,97136.78
2023-01-07T10:07:19.209Z,97140.47
2023-01-07T10:08:32.487Z,97140.28
2023-01-07T10:09:34.423Z,97126.00
2023-01-07T10:10:54.865Z,97133.63
2023-01-07T10:12:14.978Z,97129.25
2023-01-07T10:13:16.732Z,97117.91
2023-01-07T10:14:30.331Z,97123.72
2023-01-07T10:15:50.331Z,97121.41
2023-01-07T10:17:02.896Z,97119.63
2023-01-07T10:18:06.896Z,97118.19
2023-01-07T10:19:19.895Z,97116.56
2023-01-07T10:20:25.011Z,97107.81
2023-01-07T10:21:26.859Z,97113.34
2023-01-07T10:22:37.371Z,97109.75
2023-01-07T10:23:41.794Z,97109.94
2023-01-07T10:24:46.936Z,97104.09
2023-01-07T10:25:50.744Z,97106.53
2023-01-07T10:26:54.164Z,97095.19
2023-01-07T10:27:59.804Z,97104.09
2023-01-07T10:29:08.086Z,97100.38
2023-01-07T10:30:19.288Z,97099.84
2023-01-07T10:31:22.927Z,97095.94
2023-01-07T10:32:28.626Z,97089.59
2023-01-07T10:33:33.305Z,97105.78
2023-01-07T10:34:37.920Z,97091.56
2023-01-07T10:35:40.409Z,97083.25
2023-01-07T10:37:00.956Z,97086.94
2023-01-07T10:38:04.329Z,97085.97
2023-01-07T10:39:44.595Z,97082.38
2023-01-07T10:40:51.950Z,97076.56
2023-01-07T10:42:05.827Z,97068.06
2023-01-07T10:43:15.593Z,97065.31
2023-01-07T10:44:26.509Z,97066.75
2023-01-07T10:45:28.371Z,97064.34
2023-01-07T10:46:44.896Z,97059.97
2023-01-07T10:47:52.417Z,97050.03
2023-01-07T10:48:54.266Z,97051.72
2023-01-07T10:49:57.494Z,97056.44
2023-01-07T10:51:01.844Z,97042.66
2023-01-07T10:52:13.199Z,97043.47
2023-01-07T10:53:33.311Z,97040.25
2023-01-07T10:54:47.027Z,97049.03
2023-01-07T10:56:21.147Z,97039.81
2023-01-07T10:57:25.005Z,97035.06
2023-01-07T10:58:32.511Z,97036.06
2023-01-07T10:59:34.805Z,97036.38
2023-01-07T11:00:36.678Z,97038.47
2023-01-07T11:01:40.209Z,97024.34
2023-01-07T11:02:46.660Z,97023.97
2023-01-07T11:03:53.397Z,97026.22
2023-01-07T11:04:56.150Z,97024.81
2023-01-07T11:06:00.307Z,97023.47
2023-01-07T11:07:13.177Z,97023.97
2023-01-07T11:08:35.212Z,97013.97
2023-01-07T11:09:39.805Z,97014.50
2023-01-07T11:10:42.111Z,97019.50
2023-01-07T11:11:45.378Z,97015.13
2023-01-07T11:12:50.156Z,97011.91
2023-01-07T11:13:56.889Z,97008.94
2023-01-07T11:15:00.243Z,97011.53
2023-01-07T11:16:10.820Z,97002.97
2023-01-07T11:17:15.387Z,97000.84
2023-01-07T11:18:20.580Z,97001.97
2023-01-07T11:19:24.053Z,96993.56
2023-01-07T11:20:44.270Z,96995.19
2023-01-07T11:21:47.726Z,96991.50
2023-01-07T11:22:49.524Z,96985.50
2023-01-07T11:23:51.319Z,96986.78
2023-01-07T11:24:53.578Z,96982.38
2023-01-07T11:25:56.210Z,96982.22
2023-01-07T11:27:14.102Z,96978.13
2023-01-07T11:28:20.181Z,96979.63
2023-01-07T11:29:24.573Z,96970.84
2023-01-07T11:30:27.529Z,96975.06
2023-01-07T11:31:44.563Z,96970.84
2023-01-07T11:32:54.591Z,96972.81
2023-01-07T11:34:01.835Z,96974.44
2023-01-07T11:35:06.209Z,96966.28
2023-01-07T11:36:09.083Z,96965.31
2023-01-07T11:37:11.371Z,96962.53
2023-01-07T11:38:30.432Z,96956.53
2023-01-07T11:39:36.156Z,96960.91
2023-01-07T11:40:38.115Z,96957.78
2023-01-07T11:41:51.414Z,96960.03
2023-01-07T11:42:53.380Z,96954.69
2023-01-07T11:43:55.214Z,96952.88
2023-01-07T11:45:15.878Z,96953.84
2023-01-07T11:46:21.824Z,96947.31
2023-01-07T11:47:24.407Z,96946.19
2023-01-07T11:48:33.481Z,96951.00
2023-01-07T11:49:41.292Z,96944.00
2023-01-07T11:50:44.724Z,96942.88
2023-01-07T11:51:48.384Z,96940.44
2023-01-07T11:52:58.672Z,96946.25
2023-01-07T11:54:00.541Z,96937.84
2023-01-07T11:55:02.606Z,96939.66
2023-01-07T11:56:06.774Z,96940.44
2023-01-07T11:57:21.061Z,96922.09
2023-01-07T11:58:29.440Z,96932.94
2023-01-07T11:59:32.094Z,96922.56
2023-01-07T12:00:34.154Z,96924.94
2023-01-07T12:01:42.085Z,96921.56
2023-01-07T12:02:44.320Z,96917.72
2023-01-07T12:03:52.344Z,96923.53
2023-01-07T12:05:14.116Z,96920.31
2023-01-07T12:06:15.945Z,96922.91
2023-01-07T12:07:17.920Z,96912.53
2023-01-07T12:08:21.225Z,96919.97
2023-01-07T12:09:28.216Z,96911.97
2023-01-07T12:10:38.133Z,96919.25
2023-01-07T12:11:41.292Z,96912.25
2023-01-07T12:12:44.208Z,96912.44
2023-01-07T12:13:53.261Z,96910.00
2023-01-07T12:14:55.568Z,96907.78
2023-01-07T12:15:59.861Z,96904.41
2023-01-07T12:17:15.971Z,96907.78
2023-01-07T12:18:29.767Z,96897.41
2023-01-07T12:19:40.768Z,96890.13
2023-01-07T12:21:01.314Z,96900.09
2023-01-07T12:22:08.872Z,96897.69
2023-01-07T12:23:29.349Z,96895.72
2023-01-07T12:24:31.714Z,96897.59
2023-01-07T12:25:40.303Z,96894.97
2023-01-07T12:26:48.985Z,96900.19
2023-01-07T12:28:05.780Z,96898.59
2023-01-07T12:29:18.269Z,96896.78
2023-01-07T12:30:44.012Z,96895.25
2023-01-07T12:31:45.959Z,96887.53
2023-01-07T12:33:06.445Z,96888.97
2023-01-07T12:34:18.880Z,96889.59
2023-01-07T12:35:30.476Z,96884.84
2023-01-07T12:36:40.622Z,96882.50
2023-01-07T12:37:45.382Z,96881.78
2023-01-07T12:38:52.789Z,96876.22